createdAt,value
2019-06-10T00:00:36.231Z,59.00
2019-06-10T00:04:41.553Z,59.20
2019-06-10T00:08:46.759Z,59.30
2019-06-10T00:12:51.753Z,59.10
2019-06-10T00:16:56.829Z,58.80
2019-06-10T00:21:03.274Z,59.00
2019-06-10T00:25:08.558Z,59.00
2019-06-10T00:29:12.831Z,59.10
2019-06-10T00:33:16.972Z,58.90
2019-06-10T00:37:21.380Z,58.80
2019-06-10T00:41:25.852Z,58.80
2019-06-10T00:45:31.544Z,58.70
2019-06-10T00:49:35.897Z,59.40
2019-06-10T00:53:42.274Z,59.00
2019-06-10T00:57:51.311Z,58.80
2019-06-10T01:01:55.447Z,58.80
2019-06-10T01:06:02.554Z,58.70
2019-06-10T01:10:08.851Z,58.80
2019-06-10T01:14:15.297Z,58.60
2019-06-10T01:18:34.609Z,58.70
2019-06-10T01:22:31.616Z,58.70
2019-06-10T01:26:36.222Z,58.70
2019-06-10T01:30:41.276Z,59.00
2019-06-10T01:34:48.008Z,59.10
2019-06-10T01:38:52.476Z,59.20
2019-06-10T01:42:56.653Z,59.50
2019-06-10T01:47:01.315Z,59.70
2019-06-10T01:51:07.052Z,59.90
2019-06-10T01:55:13.510Z,60.10
2019-06-10T01:59:18.650Z,60.30
2019-06-10T02:03:24.014Z,60.40
2019-06-10T02:07:28.566Z,60.50
2019-06-10T02:11:35.775Z,60.50
2019-06-10T02:15:42.899Z,60.60
2019-06-10T02:19:47.010Z,60.50
2019-06-10T02:23:52.009Z,60.60
2019-06-10T02:27:56.637Z,60.70
2019-06-10T02:32:04.389Z,60.70
2019-06-10T02:36:07.899Z,60.70
2019-06-10T02:40:16.637Z,60.80
2019-06-10T02:44:23.644Z,61.00
2019-06-10T02:48:30.361Z,61.20
2019-06-10T02:52:38.239Z,61.30
2019-06-10T02:56:39.556Z,62.20
2019-06-10T03:00:48.535Z,61.50
2019-06-10T03:04:49.740Z,61.30
2019-06-10T03:08:55.115Z,61.30
2019-06-10T03:13:02.440Z,61.30
2019-06-10T03:22:23.012Z,61.30
2019-06-10T03:27:02.639Z,61.10
2019-06-10T03:31:43.189Z,61.60
2019-06-10T03:36:20.164Z,61.70
2019-06-10T03:40:57.762Z,61.90
2019-06-10T03:45:35.000Z,62.00
2019-06-10T03:50:13.407Z,62.00
2019-06-10T03:54:54.650Z,62.20
2019-06-10T03:59:32.505Z,62.20
2019-06-10T04:04:09.909Z,62.20
2019-06-10T04:08:43.084Z,62.20
2019-06-10T04:13:17.474Z,62.40
2019-06-10T04:17:22.682Z,62.50
2019-06-10T04:21:28.401Z,62.50
2019-06-10T04:25:32.572Z,62.50
2019-06-10T04:29:36.663Z,62.60
2019-06-10T04:33:42.061Z,62.70
2019-06-10T04:37:46.476Z,62.70
2019-06-10T04:41:52.978Z,62.60
2019-06-10T04:45:56.724Z,62.70
2019-06-10T04:50:02.941Z,62.60
2019-06-10T04:54:06.624Z,62.70
2019-06-10T04:58:12.975Z,62.90
2019-06-10T05:02:17.037Z,62.90
2019-06-10T05:06:23.727Z,62.90
2019-06-10T05:10:28.243Z,62.80
2019-06-10T05:14:33.568Z,62.90
2019-06-10T05:18:38.079Z,62.80
2019-06-10T05:22:42.579Z,63.20
2019-06-10T05:26:47.143Z,62.80
2019-06-10T05:30:53.202Z,62.60
2019-06-10T05:34:57.035Z,62.80
2019-06-10T05:39:02.747Z,62.50
2019-06-10T05:43:07.269Z,62.50
2019-06-10T05:47:12.661Z,62.10
2019-06-10T05:51:17.424Z,62.10
2019-06-10T05:55:22.865Z,63.10
2019-06-10T05:59:27.633Z,62.60
2019-06-10T06:03:35.119Z,62.60
2019-06-10T06:07:37.632Z,62.50
2019-06-10T06:11:43.136Z,62.80
2019-06-10T06:15:48.028Z,62.30
2019-06-10T06:19:53.432Z,62.50
2019-06-10T06:23:58.070Z,62.70
2019-06-10T06:28:02.999Z,62.60
2019-06-10T06:32:07.671Z,62.70
2019-06-10T06:36:12.603Z,62.60
2019-06-10T06:40:18.230Z,62.50
2019-06-10T06:44:37.670Z,62.50
2019-06-10T06:48:43.653Z,62.20
2019-06-10T06:53:18.781Z,62.30
2019-06-10T06:57:03.623Z,62.40
2019-06-10T07:01:11.079Z,62.60
2019-06-10T07:05:15.159Z,61.90
2019-06-10T07:09:26.551Z,62.20
2019-06-10T07:13:45.827Z,62.10
2019-06-10T07:17:52.658Z,62.20
2019-06-10T07:22:11.438Z,62.50
2019-06-10T07:26:08.975Z,62.90
2019-06-10T07:30:23.002Z,63.40
2019-06-10T07:34:28.192Z,63.50
2019-06-10T07:38:35.552Z,63.50
2019-06-10T07:42:45.544Z,63.70
2019-06-10T07:46:52.974Z,63.80
2019-06-10T07:50:57.494Z,63.70
2019-06-10T07:55:04.457Z,63.80
2019-06-10T07:59:12.954Z,63.70
2019-06-10T08:03:16.711Z,63.60
2019-06-10T08:07:22.523Z,63.40
2019-06-10T08:11:27.819Z,63.40
2019-06-10T08:15:35.478Z,63.50
2019-06-10T08:19:46.253Z,63.60
2019-06-10T08:23:47.448Z,63.30
2019-06-10T08:27:53.015Z,63.10
2019-06-10T08:32:06.855Z,63.00
2019-06-10T08:36:13.296Z,62.80
2019-06-10T08:40:22.958Z,62.60
2019-06-10T08:44:27.244Z,62.60
2019-06-10T08:48:32.947Z,62.70
2019-06-10T08:52:51.281Z,63.20
2019-06-10T08:56:47.652Z,62.10
2019-06-10T09:00:53.293Z,61.90
2019-06-10T09:04:57.078Z,61.20
2019-06-10T09:09:05.298Z,61.00
2019-06-10T09:13:09.904Z,61.40
2019-06-10T09:17:18.590Z,61.40
2019-06-10T09:21:23.891Z,61.30
2019-06-10T09:25:28.779Z,61.00
2019-06-10T09:29:33.455Z,60.60
2019-06-10T09:33:37.671Z,60.40
2019-06-10T09:37:47.484Z,60.40
2019-06-10T09:41:56.631Z,60.60
2019-06-10T09:45:56.341Z,60.80
2019-06-10T09:50:03.050Z,60.80
2019-06-10T09:54:07.247Z,61.00
2019-06-10T09:58:12.274Z,60.80
2019-06-10T10:02:16.775Z,60.50
2019-06-10T10:06:23.553Z,60.40
2019-06-10T10:10:36.285Z,60.40
2019-06-10T10:14:42.344Z,59.30
2019-06-10T10:18:49.428Z,58.00
2019-06-10T10:22:55.448Z,57.30
2019-06-10T10:27:01.977Z,57.80
2019-06-10T10:31:05.556Z,57.30
2019-06-10T10:35:12.111Z,56.30
2019-06-10T10:39:16.557Z,55.80
2019-06-10T10:43:28.945Z,56.10
2019-06-10T10:47:27.930Z,56.20
2019-06-10T10:51:32.691Z,56.20
2019-06-10T10:55:37.584Z,56.30
2019-06-10T10:59:43.518Z,56.40
2019-06-10T11:03:50.037Z,56.30
2019-06-10T11:07:55.230Z,56.00
2019-06-10T11:12:02.869Z,55.60
2019-06-10T11:16:06.862Z,55.40
2019-06-10T11:20:13.605Z,55.50
2019-06-10T11:24:32.830Z,54.70
2019-06-10T11:28:23.571Z,54.70
2019-06-10T11:32:28.219Z,54.40
2019-06-10T11:36:32.927Z,54.10
2019-06-10T11:40:37.336Z,53.60
2019-06-10T11:44:42.510Z,53.90
2019-06-10T11:48:47.060Z,54.80
2019-06-10T11:52:55.497Z,54.30
2019-06-10T11:56:58.656Z,53.80
2019-06-10T12:01:04.362Z,54.30
2019-06-10T12:05:08.986Z,54.20
2019-06-10T12:09:13.790Z,54.30
2019-06-10T12:13:18.447Z,53.60
2019-06-10T12:17:41.112Z,53.60
2019-06-10T12:21:33.062Z,53.80
2019-06-10T12:25:39.731Z,53.00
2019-06-10T12:29:43.545Z,52.50
2019-06-10T12:33:51.120Z,52.60
2019-06-10T12:37:58.429Z,52.40
2019-06-10T12:42:05.821Z,52.10
2019-06-10T12:46:07.518Z,51.90
2019-06-10T12:50:12.769Z,51.40
2019-06-10T12:54:17.552Z,50.90
2019-06-10T12:58:22.578Z,51.80
2019-06-10T13:02:31.400Z,52.20
2019-06-10T13:06:33.751Z,52.10
2019-06-10T13:10:43.007Z,52.10
2019-06-10T13:14:47.306Z,52.50
2019-06-10T13:18:52.487Z,52.60
2019-06-10T13:22:58.347Z,52.60
2019-06-10T13:27:03.872Z,52.50
2019-06-10T13:31:10.166Z,52.80
2019-06-10T13:35:14.898Z,52.90
2019-06-10T13:39:18.982Z,53.10
2019-06-10T13:43:23.745Z,53.30
2019-06-10T13:47:27.942Z,53.50
2019-06-10T13:51:35.385Z,53.80
2019-06-10T13:55:38.590Z,53.80
2019-06-10T13:59:46.159Z,53.90
2019-06-10T14:03:50.474Z,53.90
2019-06-10T14:07:55.053Z,54.20
2019-06-10T14:11:59.384Z,54.10
2019-06-10T14:16:03.657Z,54.40
2019-06-10T14:20:10.826Z,54.50
2019-06-10T14:24:16.363Z,54.40
2019-06-10T14:28:38.715Z,54.50
2019-06-10T14:32:26.449Z,54.70
2019-06-10T14:36:32.514Z,54.80
2019-06-10T14:40:36.723Z,55.00
2019-06-10T14:44:42.112Z,55.20
2019-06-10T14:48:46.358Z,55.30
2019-06-10T14:52:50.743Z,55.50
2019-06-10T14:56:57.358Z,55.60
2019-06-10T15:01:04.365Z,55.80
2019-06-10T15:05:09.083Z,55.70
2019-06-10T15:09:13.691Z,55.90
2019-06-10T15:13:17.936Z,56.30
2019-06-10T15:17:22.028Z,56.50
2019-06-10T15:21:26.482Z,56.70
2019-06-10T15:25:48.657Z,57.00
2019-06-10T15:29:36.842Z,57.50
2019-06-10T15:33:42.995Z,57.60
2019-06-10T15:37:47.302Z,57.80
2019-06-10T15:41:52.271Z,58.20
2019-06-10T15:45:57.038Z,58.60
2019-06-10T15:50:03.152Z,59.00
2019-06-10T15:54:07.225Z,60.30
2019-06-10T15:58:12.880Z,61.00
2019-06-10T16:02:19.536Z,62.30
2019-06-10T16:06:24.379Z,63.10
2019-06-10T16:10:28.590Z,64.20
2019-06-10T16:14:33.237Z,64.60
2019-06-10T16:18:37.896Z,64.70
2019-06-10T16:22:42.876Z,65.10
2019-06-10T16:26:46.973Z,65.50
2019-06-10T16:30:53.808Z,66.20
2019-06-10T16:34:57.583Z,66.40
2019-06-10T16:39:03.425Z,67.00
2019-06-10T16:43:07.613Z,66.40
2019-06-10T16:47:12.715Z,66.40
2019-06-10T16:51:17.441Z,66.50
2019-06-10T16:55:22.669Z,67.10
2019-06-10T16:59:28.357Z,67.30
2019-06-10T17:03:33.770Z,67.10
2019-06-10T17:07:43.535Z,67.40
2019-06-10T17:11:48.414Z,67.50
2019-06-10T17:15:53.785Z,68.20
2019-06-10T17:20:03.781Z,68.30
2019-06-10T17:24:07.022Z,68.60
2019-06-10T17:28:18.153Z,69.00
2019-06-10T17:32:17.084Z,69.20
2019-06-10T17:36:26.421Z,69.50
2019-06-10T17:40:31.655Z,69.70
2019-06-10T17:44:36.358Z,69.80
2019-06-10T17:48:40.494Z,69.70
2019-06-10T17:52:44.612Z,70.20
2019-06-10T17:56:49.031Z,70.60
2019-06-10T18:00:53.453Z,70.70
2019-06-10T18:04:57.544Z,70.40
2019-06-10T18:09:04.052Z,70.90
2019-06-10T18:13:14.014Z,71.40
2019-06-10T18:17:15.711Z,71.10
2019-06-10T18:21:22.384Z,71.40
2019-06-10T18:25:26.678Z,72.50
2019-06-10T18:29:33.469Z,72.50
2019-06-10T18:33:38.048Z,72.60
2019-06-10T18:37:42.941Z,72.70
2019-06-10T18:41:47.507Z,72.50
2019-06-10T18:45:53.371Z,72.40
2019-06-10T18:49:57.829Z,72.70
2019-06-10T18:54:02.524Z,73.20
2019-06-10T18:58:06.659Z,73.20
2019-06-10T19:02:12.236Z,73.10
2019-06-10T19:06:16.970Z,73.40
2019-06-10T19:10:23.078Z,73.40
2019-06-10T19:14:27.355Z,73.40
2019-06-10T19:18:31.894Z,73.80
2019-06-10T19:22:37.905Z,73.80
2019-06-10T19:26:45.055Z,74.00
2019-06-10T19:30:49.579Z,73.90
2019-06-10T19:34:53.718Z,74.00
2019-06-10T19:38:58.538Z,74.10
2019-06-10T19:43:03.220Z,74.20
2019-06-10T19:47:07.904Z,74.50
2019-06-10T19:51:12.328Z,74.70
2019-06-10T19:55:16.968Z,74.50
2019-06-10T19:59:23.124Z,74.40
2019-06-10T20:03:27.690Z,74.90
2019-06-10T20:07:32.402Z,74.80
2019-06-10T20:11:36.747Z,74.90
2019-06-10T20:15:42.080Z,74.60
2019-06-10T20:19:48.269Z,74.80
2019-06-10T20:23:54.379Z,74.80
2019-06-10T20:27:58.934Z,74.80
2019-06-10T20:32:03.226Z,74.90
2019-06-10T20:36:13.611Z,74.90
2019-06-10T20:40:15.551Z,74.50
2019-06-10T20:44:22.189Z,74.40
2019-06-10T20:48:26.061Z,74.40
2019-06-10T20:52:32.539Z,74.30
2019-06-10T20:56:36.338Z,74.20
2019-06-10T21:00:46.507Z,74.00
2019-06-10T21:04:48.371Z,74.00
2019-06-10T21:08:54.678Z,74.20
2019-06-10T21:12:58.861Z,74.30
2019-06-10T21:17:03.709Z,74.20
2019-06-10T21:21:07.880Z,74.20
2019-06-10T21:25:13.343Z,74.30
2019-06-10T21:29:17.608Z,74.40
2019-06-10T21:33:23.433Z,74.40
2019-06-10T21:37:28.311Z,74.40
2019-06-10T21:41:32.844Z,74.30
2019-06-10T21:45:37.117Z,74.40
2019-06-10T21:49:43.946Z,74.30
2019-06-10T21:53:48.682Z,74.20
2019-06-10T21:57:55.184Z,74.30
2019-06-10T22:02:00.120Z,74.20
2019-06-10T22:06:05.642Z,74.20
2019-06-10T22:10:09.973Z,74.40
2019-06-10T22:14:14.171Z,74.60
2019-06-10T22:18:19.438Z,74.40
2019-06-10T22:22:27.203Z,74.40
2019-06-10T22:26:32.270Z,74.70
2019-06-10T22:30:36.866Z,74.90
2019-06-10T22:34:42.141Z,74.90
2019-06-10T22:38:47.791Z,75.00
2019-06-10T22:42:55.162Z,75.20
2019-06-10T22:47:00.083Z,75.30
2019-06-10T22:51:05.110Z,75.20
2019-06-10T22:55:09.686Z,75.10
2019-06-10T22:59:13.911Z,75.40
2019-06-10T23:03:18.159Z,75.40
2019-06-10T23:07:23.103Z,75.40
2019-06-10T23:11:27.959Z,75.50
2019-06-10T23:15:32.349Z,75.70
2019-06-10T23:19:36.537Z,75.90
2019-06-10T23:23:43.011Z,76.30
2019-06-10T23:27:48.165Z,76.20
2019-06-10T23:31:58.979Z,76.30
2019-06-10T23:35:58.738Z,76.20
2019-06-10T23:40:04.520Z,76.50
2019-06-10T23:44:09.323Z,76.50
2019-06-10T23:48:13.572Z,76.40
2019-06-10T23:52:17.750Z,76.50
2019-06-10T23:56:22.507Z,76.60
